Main page
Satellite images 15-day forecastsClimateMarine weather Cyclones Lightning AirportsFAQ Newsletter About
Weather : Europe Africa North America South America Asia Australia-Oceania Others
Languages Contact

Milan, Italy

Malpensa

latitude: 45-37N, longitude: 008-44E, elevation: 234 m


METAR: LIMC 230450Z 00000KT 5000 R35L/0700V1500N BR SCT080 02/01 Q1026 NOSIG
TAF: LIMC 222300Z 2300/2406 VRB05KT 4000 BR SCT070 TEMPO 2300/2306 1500 BCFG BECMG 2307/2309 8000 BECMG 2318/2320 4000 BR

Time: 06:28 (05:28 UTC)

Current weather observation

The report was made 38 minutes ago, at 04:50 UTC
Wind calm
Temperature 2°C
Humidity 93%
Pressure 1026 hPa
Visibility: 5000 m
Scattered clouds at a height of 8000 ft
mist

Change units

Forecast

The report was made 6 hours and 28 minutes ago, at 23:00 UTC
Forecast valid from 23 at 00 UTC to 24 at 06 UTC
Wind 5 kt from variable directions
Visibility: 4000 m
Scattered clouds at a height of 7000 ft
mist
Temporary
from 23 at 00 UTC to 23 at 06 UTC
Visibility: 1500 m
patches of fog
Becoming
from 23 at 07 UTC to 23 at 09 UTC
Visibility: 8000 m
Becoming
from 23 at 18 UTC to 23 at 20 UTC
Visibility: 4000 m
mist
The information on this site is subject to a disclaimer
Weather : Europe Africa North America South America Asia Australia-Oceania Others
Satellite images 15-day forecastsClimateMarine weather Cyclones Lightning AirportsFAQ Languages Contact Newsletter About